sensor_id;sensor_type;location;lat;lon;timestamp;temperature;humidity
18998;DHT22;9632;51.018;4.284;2023-03-21T00:01:56;12.70;99.90
18998;DHT22;9632;51.018;4.284;2023-03-21T00:04:25;12.70;99.90
18998;DHT22;9632;51.018;4.284;2023-03-21T00:06:51;12.60;99.90
18998;DHT22;9632;51.018;4.284;2023-03-21T00:09:18;12.60;99.90
18998;DHT22;9632;51.018;4.284;2023-03-21T00:11:44;12.60;99.90
18998;DHT22;9632;51.018;4.284;2023-03-21T00:14:10;12.60;99.90
18998;DHT22;9632;51.018;4.284;2023-03-21T00:16:39;12.60;99.90
18998;DHT22;9632;51.018;4.284;2023-03-21T00:19:05;12.60;99.90
18998;DHT22;9632;51.018;4.284;2023-03-21T00:21:31;12.60;99.90
18998;DHT22;9632;51.018;4.284;2023-03-21T00:23:59;12.60;99.90
18998;DHT22;9632;51.018;4.284;2023-03-21T00:26:25;12.60;99.90
18998;DHT22;9632;51.018;4.284;2023-03-21T00:28:51;12.60;99.90
18998;DHT22;9632;51.018;4.284;2023-03-21T00:31:17;12.60;99.90
18998;DHT22;9632;51.018;4.284;2023-03-21T00:33:43;12.60;99.90
18998;DHT22;9632;51.018;4.284;2023-03-21T00:36:10;12.60;99.90
18998;DHT22;9632;51.018;4.284;2023-03-21T00:38:37;12.70;99.90
18998;DHT22;9632;51.018;4.284;2023-03-21T00:41:04;12.70;99.90
18998;DHT22;9632;51.018;4.284;2023-03-21T00:43:30;12.70;99.90
18998;DHT22;9632;51.018;4.284;2023-03-21T00:45:57;12.70;99.90
18998;DHT22;9632;51.018;4.284;2023-03-21T00:48:24;12.70;99.90
18998;DHT22;9632;51.018;4.284;2023-03-21T00:50:52;12.70;99.90
18998;DHT22;9632;51.018;4.284;2023-03-21T00:53:19;12.70;99.90
18998;DHT22;9632;51.018;4.284;2023-03-21T00:55:45;12.70;99.90
18998;DHT22;9632;51.018;4.284;2023-03-21T00:58:11;12.70;99.90
18998;DHT22;9632;51.018;4.284;2023-03-21T01:00:37;12.70;99.90
18998;DHT22;9632;51.018;4.284;2023-03-21T01:03:09;12.70;99.90
18998;DHT22;9632;51.018;4.284;2023-03-21T01:05:41;12.70;99.90
18998;DHT22;9632;51.018;4.284;2023-03-21T01:08:26;12.70;99.90
18998;DHT22;9632;51.018;4.284;2023-03-21T01:10:53;12.70;99.90
18998;DHT22;9632;51.018;4.284;2023-03-21T01:13:20;12.70;99.90
18998;DHT22;9632;51.018;4.284;2023-03-21T01:15:51;12.70;99.90
18998;DHT22;9632;51.018;4.284;2023-03-21T01:18:19;12.70;99.90
18998;DHT22;9632;51.018;4.284;2023-03-21T01:20:46;12.70;99.90
18998;DHT22;9632;51.018;4.284;2023-03-21T01:23:13;12.70;99.90
18998;DHT22;9632;51.018;4.284;2023-03-21T01:25:40;12.70;99.90
18998;DHT22;9632;51.018;4.284;2023-03-21T01:28:06;12.70;99.90
18998;DHT22;9632;51.018;4.284;2023-03-21T01:30:32;12.70;99.90
18998;DHT22;9632;51.018;4.284;2023-03-21T01:32:58;12.70;99.90
18998;DHT22;9632;51.018;4.284;2023-03-21T01:35:23;12.70;99.90
18998;DHT22;9632;51.018;4.284;2023-03-21T01:37:49;12.70;99.90
18998;DHT22;9632;51.018;4.284;2023-03-21T01:40:21;12.70;99.90
18998;DHT22;9632;51.018;4.284;2023-03-21T01:42:47;12.70;99.90
18998;DHT22;9632;51.018;4.284;2023-03-21T01:48:17;12.70;99.90
18998;DHT22;9632;51.018;4.284;2023-03-21T01:50:44;12.80;99.90
18998;DHT22;9632;51.018;4.284;2023-03-21T01:53:10;12.70;99.90
18998;DHT22;9632;51.018;4.284;2023-03-21T01:55:37;12.70;99.90
18998;DHT22;9632;51.018;4.284;2023-03-21T01:58:04;12.70;99.90
18998;DHT22;9632;51.018;4.284;2023-03-21T02:00:31;12.70;99.90
18998;DHT22;9632;51.018;4.284;2023-03-21T02:02:59;12.70;99.90
18998;DHT22;9632;51.018;4.284;2023-03-21T02:05:54;12.80;99.90
18998;DHT22;9632;51.018;4.284;2023-03-21T02:08:22;12.70;99.90
18998;DHT22;9632;51.018;4.284;2023-03-21T02:10:48;12.80;99.90
18998;DHT22;9632;51.018;4.284;2023-03-21T02:13:15;12.80;99.90
18998;DHT22;9632;51.018;4.284;2023-03-21T02:15:45;12.80;99.90
18998;DHT22;9632;51.018;4.284;2023-03-21T02:18:42;12.80;99.90
18998;DHT22;9632;51.018;4.284;2023-03-21T02:21:42;12.70;99.90
18998;DHT22;9632;51.018;4.284;2023-03-21T02:27:23;12.70;99.90
18998;DHT22;9632;51.018;4.284;2023-03-21T02:42:04;12.70;99.90
18998;DHT22;9632;51.018;4.284;2023-03-21T02:44:18;12.70;99.90
18998;DHT22;9632;51.018;4.284;2023-03-21T02:47:01;12.70;99.90
18998;DHT22;9632;51.018;4.284;2023-03-21T02:50:20;12.70;99.90
18998;DHT22;9632;51.018;4.284;2023-03-21T02:52:31;12.70;99.90
18998;DHT22;9632;51.018;4.284;2023-03-21T02:54:59;12.70;99.90
18998;DHT22;9632;51.018;4.284;2023-03-21T02:57:29;12.80;99.90
18998;DHT22;9632;51.018;4.284;2023-03-21T02:59:56;12.70;99.90
18998;DHT22;9632;51.018;4.284;2023-03-21T03:02:27;12.80;99.90
18998;DHT22;9632;51.018;4.284;2023-03-21T03:04:53;12.70;99.90
18998;DHT22;9632;51.018;4.284;2023-03-21T03:18:49;12.80;99.90
18998;DHT22;9632;51.018;4.284;2023-03-21T03:21:27;12.80;99.90
18998;DHT22;9632;51.018;4.284;2023-03-21T03:24:09;12.70;99.90
18998;DHT22;9632;51.018;4.284;2023-03-21T03:29:07;12.80;99.90
18998;DHT22;9632;51.018;4.284;2023-03-21T03:31:36;12.80;99.90
18998;DHT22;9632;51.018;4.284;2023-03-21T03:34:17;12.80;99.90
18998;DHT22;9632;51.018;4.284;2023-03-21T03:36:48;12.80;99.90
18998;DHT22;9632;51.018;4.284;2023-03-21T03:39:17;12.80;99.90
18998;DHT22;9632;51.018;4.284;2023-03-21T03:41:54;12.80;99.90
18998;DHT22;9632;51.018;4.284;2023-03-21T03:44:20;12.80;99.90
18998;DHT22;9632;51.018;4.284;2023-03-21T03:47:01;12.80;99.90
18998;DHT22;9632;51.018;4.284;2023-03-21T03:49:34;12.80;99.90
18998;DHT22;9632;51.018;4.284;2023-03-21T03:52:07;12.80;99.90
18998;DHT22;9632;51.018;4.284;2023-03-21T03:54:41;12.80;99.90
18998;DHT22;9632;51.018;4.284;2023-03-21T03:57:08;12.80;99.90
18998;DHT22;9632;51.018;4.284;2023-03-21T03:59:37;12.80;99.90
18998;DHT22;9632;51.018;4.284;2023-03-21T04:02:03;12.80;99.90
18998;DHT22;9632;51.018;4.284;2023-03-21T04:04:29;12.80;99.90
18998;DHT22;9632;51.018;4.284;2023-03-21T04:06:56;12.80;99.90
18998;DHT22;9632;51.018;4.284;2023-03-21T04:09:23;12.80;99.90
18998;DHT22;9632;51.018;4.284;2023-03-21T04:11:49;12.80;99.90
18998;DHT22;9632;51.018;4.284;2023-03-21T04:14:15;12.80;99.90
18998;DHT22;9632;51.018;4.284;2023-03-21T04:16:41;12.90;99.90
18998;DHT22;9632;51.018;4.284;2023-03-21T04:19:07;12.90;99.90
18998;DHT22;9632;51.018;4.284;2023-03-21T04:21:33;12.90;99.90
18998;DHT22;9632;51.018;4.284;2023-03-21T04:23:58;12.90;99.90
18998;DHT22;9632;51.018;4.284;2023-03-21T04:26:24;12.90;99.90
18998;DHT22;9632;51.018;4.284;2023-03-21T04:28:52;12.90;99.90
18998;DHT22;9632;51.018;4.284;2023-03-21T04:31:17;12.90;99.90
18998;DHT22;9632;51.018;4.284;2023-03-21T04:33:43;12.90;99.90
18998;DHT22;9632;51.018;4.284;2023-03-21T04:36:09;12.90;99.90
18998;DHT22;9632;51.018;4.284;2023-03-21T04:38:52;12.80;99.90
18998;DHT22;9632;51.018;4.284;2023-03-21T04:41:18;12.80;99.90
18998;DHT22;9632;51.018;4.284;2023-03-21T04:43:44;12.80;99.90
18998;DHT22;9632;51.018;4.284;2023-03-21T04:46:10;12.80;99.90
18998;DHT22;9632;51.018;4.284;2023-03-21T04:48:36;12.90;99.90
18998;DHT22;9632;51.018;4.284;2023-03-21T04:51:02;12.90;99.90
18998;DHT22;9632;51.018;4.284;2023-03-21T04:53:27;12.90;99.90
18998;DHT22;9632;51.018;4.284;2023-03-21T04:55:53;12.90;99.90
18998;DHT22;9632;51.018;4.284;2023-03-21T04:58:19;12.90;99.90
18998;DHT22;9632;51.018;4.284;2023-03-21T05:00:45;12.90;99.90
18998;DHT22;9632;51.018;4.284;2023-03-21T05:03:11;12.90;99.90
18998;DHT22;9632;51.018;4.284;2023-03-21T05:05:44;13.00;99.90
18998;DHT22;9632;51.018;4.284;2023-03-21T05:08:11;13.00;99.90
18998;DHT22;9632;51.018;4.284;2023-03-21T05:10:37;13.00;99.90
18998;DHT22;9632;51.018;4.284;2023-03-21T05:13:03;13.00;99.90
18998;DHT22;9632;51.018;4.284;2023-03-21T05:15:28;13.00;99.90
18998;DHT22;9632;51.018;4.284;2023-03-21T05:17:54;13.00;99.90
18998;DHT22;9632;51.018;4.284;2023-03-21T05:20:23;13.00;99.90
18998;DHT22;9632;51.018;4.284;2023-03-21T05:22:49;13.00;99.90
18998;DHT22;9632;51.018;4.284;2023-03-21T05:25:16;13.00;99.90
18998;DHT22;9632;51.018;4.284;2023-03-21T05:27:43;12.90;99.90
18998;DHT22;9632;51.018;4.284;2023-03-21T05:30:15;12.90;99.90
18998;DHT22;9632;51.018;4.284;2023-03-21T05:32:41;12.90;99.90
18998;DHT22;9632;51.018;4.284;2023-03-21T05:35:07;12.90;99.90
18998;DHT22;9632;51.018;4.284;2023-03-21T05:37:34;13.00;99.90
18998;DHT22;9632;51.018;4.284;2023-03-21T05:40:00;12.90;99.90
18998;DHT22;9632;51.018;4.284;2023-03-21T05:42:26;12.90;99.90
18998;DHT22;9632;51.018;4.284;2023-03-21T05:44:52;12.90;99.90
18998;DHT22;9632;51.018;4.284;2023-03-21T05:47:18;12.90;99.90
18998;DHT22;9632;51.018;4.284;2023-03-21T05:49:44;12.90;99.90
18998;DHT22;9632;51.018;4.284;2023-03-21T05:52:10;12.90;99.90
18998;DHT22;9632;51.018;4.284;2023-03-21T05:54:36;12.90;99.90
18998;DHT22;9632;51.018;4.284;2023-03-21T05:57:03;12.90;99.90
18998;DHT22;9632;51.018;4.284;2023-03-21T05:59:28;12.90;99.90
18998;DHT22;9632;51.018;4.284;2023-03-21T06:01:54;12.90;99.90
18998;DHT22;9632;51.018;4.284;2023-03-21T06:04:20;12.90;99.90
18998;DHT22;9632;51.018;4.284;2023-03-21T06:06:46;12.90;99.90
18998;DHT22;9632;51.018;4.284;2023-03-21T06:09:11;12.90;99.90
18998;DHT22;9632;51.018;4.284;2023-03-21T06:11:40;12.80;99.90
18998;DHT22;9632;51.018;4.284;2023-03-21T06:14:08;12.80;99.90
18998;DHT22;9632;51.018;4.284;2023-03-21T06:16:34;12.70;99.90
18998;DHT22;9632;51.018;4.284;2023-03-21T06:18:59;12.70;99.90
18998;DHT22;9632;51.018;4.284;2023-03-21T06:21:25;12.70;99.90
18998;DHT22;9632;51.018;4.284;2023-03-21T06:23:51;12.70;99.90
18998;DHT22;9632;51.018;4.284;2023-03-21T06:26:17;12.70;99.90
18998;DHT22;9632;51.018;4.284;2023-03-21T06:28:51;12.70;99.90
18998;DHT22;9632;51.018;4.284;2023-03-21T06:31:17;12.70;99.90
18998;DHT22;9632;51.018;4.284;2023-03-21T06:33:43;12.70;99.90
18998;DHT22;9632;51.018;4.284;2023-03-21T06:36:09;12.70;99.90
18998;DHT22;9632;51.018;4.284;2023-03-21T06:38:35;12.60;99.90
18998;DHT22;9632;51.018;4.284;2023-03-21T06:41:03;12.60;99.90
18998;DHT22;9632;51.018;4.284;2023-03-21T06:43:29;12.60;99.90
18998;DHT22;9632;51.018;4.284;2023-03-21T06:45:56;12.70;99.90
18998;DHT22;9632;51.018;4.284;2023-03-21T06:48:22;12.70;99.90
18998;DHT22;9632;51.018;4.284;2023-03-21T06:50:49;12.70;99.90
18998;DHT22;9632;51.018;4.284;2023-03-21T06:53:15;12.70;99.90
18998;DHT22;9632;51.018;4.284;2023-03-21T06:55:41;12.70;99.90
18998;DHT22;9632;51.018;4.284;2023-03-21T06:58:07;12.70;99.90
18998;DHT22;9632;51.018;4.284;2023-03-21T07:00:32;12.80;99.90
18998;DHT22;9632;51.018;4.284;2023-03-21T07:02:58;12.70;99.90
18998;DHT22;9632;51.018;4.284;2023-03-21T07:05:25;12.70;99.90
18998;DHT22;9632;51.018;4.284;2023-03-21T07:07:51;12.60;99.90
18998;DHT22;9632;51.018;4.284;2023-03-21T07:10:17;12.60;99.90
18998;DHT22;9632;51.018;4.284;2023-03-21T07:12:42;12.60;99.90
18998;DHT22;9632;51.018;4.284;2023-03-21T07:15:09;12.70;99.90
18998;DHT22;9632;51.018;4.284;2023-03-21T07:17:35;12.70;99.90
18998;DHT22;9632;51.018;4.284;2023-03-21T07:20:01;12.70;99.90
18998;DHT22;9632;51.018;4.284;2023-03-21T07:22:30;12.70;99.90
18998;DHT22;9632;51.018;4.284;2023-03-21T07:24:56;12.70;99.90
18998;DHT22;9632;51.018;4.284;2023-03-21T07:27:22;12.70;99.90
18998;DHT22;9632;51.018;4.284;2023-03-21T07:29:47;12.70;99.90
18998;DHT22;9632;51.018;4.284;2023-03-21T07:32:14;12.70;99.90
18998;DHT22;9632;51.018;4.284;2023-03-21T07:34:40;12.70;99.90
18998;DHT22;9632;51.018;4.284;2023-03-21T07:37:06;12.80;99.90
18998;DHT22;9632;51.018;4.284;2023-03-21T07:39:32;12.80;99.90
18998;DHT22;9632;51.018;4.284;2023-03-21T07:41:59;12.80;99.90
18998;DHT22;9632;51.018;4.284;2023-03-21T07:44:25;12.80;99.90
18998;DHT22;9632;51.018;4.284;2023-03-21T07:46:50;12.80;99.90
18998;DHT22;9632;51.018;4.284;2023-03-21T07:49:16;12.80;99.90
18998;DHT22;9632;51.018;4.284;2023-03-21T07:51:42;12.80;99.90
18998;DHT22;9632;51.018;4.284;2023-03-21T07:54:07;12.80;99.90
18998;DHT22;9632;51.018;4.284;2023-03-21T07:56:33;12.80;99.90
18998;DHT22;9632;51.018;4.284;2023-03-21T07:58:59;12.80;99.90
18998;DHT22;9632;51.018;4.284;2023-03-21T08:01:25;12.80;99.90
18998;DHT22;9632;51.018;4.284;2023-03-21T08:03:51;12.80;99.90
18998;DHT22;9632;51.018;4.284;2023-03-21T08:06:19;12.80;99.90
18998;DHT22;9632;51.018;4.284;2023-03-21T08:08:45;12.90;99.90
18998;DHT22;9632;51.018;4.284;2023-03-21T08:11:11;12.90;99.90
18998;DHT22;9632;51.018;4.284;2023-03-21T08:13:37;12.90;99.90
18998;DHT22;9632;51.018;4.284;2023-03-21T08:16:02;12.90;99.90
18998;DHT22;9632;51.018;4.284;2023-03-21T08:18:28;12.90;99.90
18998;DHT22;9632;51.018;4.284;2023-03-21T08:20:55;12.90;99.90
18998;DHT22;9632;51.018;4.284;2023-03-21T08:23:22;12.90;99.90
18998;DHT22;9632;51.018;4.284;2023-03-21T08:25:57;12.90;99.90
18998;DHT22;9632;51.018;4.284;2023-03-21T08:28:23;13.00;99.90
18998;DHT22;9632;51.018;4.284;2023-03-21T08:30:49;13.00;99.90
18998;DHT22;9632;51.018;4.284;2023-03-21T08:33:15;13.00;99.90
18998;DHT22;9632;51.018;4.284;2023-03-21T08:35:43;13.10;99.90
18998;DHT22;9632;51.018;4.284;2023-03-21T08:38:09;13.20;99.90
18998;DHT22;9632;51.018;4.284;2023-03-21T08:40:35;13.20;99.90
18998;DHT22;9632;51.018;4.284;2023-03-21T08:43:01;13.30;99.90
18998;DHT22;9632;51.018;4.284;2023-03-21T08:45:27;13.30;99.90
18998;DHT22;9632;51.018;4.284;2023-03-21T08:47:53;13.40;99.90
18998;DHT22;9632;51.018;4.284;2023-03-21T08:50:20;13.40;99.90
18998;DHT22;9632;51.018;4.284;2023-03-21T08:52:48;13.50;99.90
18998;DHT22;9632;51.018;4.284;2023-03-21T08:55:15;13.60;99.90
18998;DHT22;9632;51.018;4.284;2023-03-21T08:57:42;13.60;99.90
18998;DHT22;9632;51.018;4.284;2023-03-21T09:00:10;13.70;99.90
18998;DHT22;9632;51.018;4.284;2023-03-21T09:02:43;13.70;99.90
18998;DHT22;9632;51.018;4.284;2023-03-21T09:05:10;13.70;99.90
18998;DHT22;9632;51.018;4.284;2023-03-21T09:07:37;13.80;99.90
18998;DHT22;9632;51.018;4.284;2023-03-21T09:10:05;13.90;99.90
18998;DHT22;9632;51.018;4.284;2023-03-21T09:12:32;13.90;99.90
18998;DHT22;9632;51.018;4.284;2023-03-21T09:14:58;14.00;99.90
18998;DHT22;9632;51.018;4.284;2023-03-21T09:17:23;13.90;99.90
18998;DHT22;9632;51.018;4.284;2023-03-21T09:19:50;14.00;99.90
18998;DHT22;9632;51.018;4.284;2023-03-21T09:22:17;14.00;99.90
18998;DHT22;9632;51.018;4.284;2023-03-21T09:24:47;14.00;99.90
18998;DHT22;9632;51.018;4.284;2023-03-21T09:27:15;13.90;99.90
18998;DHT22;9632;51.018;4.284;2023-03-21T09:29:43;14.00;99.90
18998;DHT22;9632;51.018;4.284;2023-03-21T09:32:09;14.00;99.90
18998;DHT22;9632;51.018;4.284;2023-03-21T09:34:37;14.10;99.90
18998;DHT22;9632;51.018;4.284;2023-03-21T09:37:07;14.10;99.90
18998;DHT22;9632;51.018;4.284;2023-03-21T09:39:41;14.10;99.90
18998;DHT22;9632;51.018;4.284;2023-03-21T09:42:23;14.10;99.90
18998;DHT22;9632;51.018;4.284;2023-03-21T09:47:21;14.10;99.90
18998;DHT22;9632;51.018;4.284;2023-03-21T09:50:06;14.10;99.90
18998;DHT22;9632;51.018;4.284;2023-03-21T09:53:13;14.10;99.90
18998;DHT22;9632;51.018;4.284;2023-03-21T09:55:34;14.20;99.90
18998;DHT22;9632;51.018;4.284;2023-03-21T10:00:53;14.30;99.90
18998;DHT22;9632;51.018;4.284;2023-03-21T10:03:29;14.30;99.90
18998;DHT22;9632;51.018;4.284;2023-03-21T10:05:57;14.30;99.90
18998;DHT22;9632;51.018;4.284;2023-03-21T10:08:28;14.30;99.90
18998;DHT22;9632;51.018;4.284;2023-03-21T10:13:55;14.40;99.90
18998;DHT22;9632;51.018;4.284;2023-03-21T10:16:28;14.40;99.90
18998;DHT22;9632;51.018;4.284;2023-03-21T10:18:54;14.50;99.90
18998;DHT22;9632;51.018;4.284;2023-03-21T10:21:25;14.50;99.90
18998;DHT22;9632;51.018;4.284;2023-03-21T10:23:53;14.60;99.90
18998;DHT22;9632;51.018;4.284;2023-03-21T10:26:23;14.60;99.90
18998;DHT22;9632;51.018;4.284;2023-03-21T10:28:51;14.50;99.90
18998;DHT22;9632;51.018;4.284;2023-03-21T10:31:19;14.50;99.90
18998;DHT22;9632;51.018;4.284;2023-03-21T10:33:48;14.50;99.90
18998;DHT22;9632;51.018;4.284;2023-03-21T10:36:21;14.50;99.90
18998;DHT22;9632;51.018;4.284;2023-03-21T10:38:53;14.60;99.90
18998;DHT22;9632;51.018;4.284;2023-03-21T10:41:19;14.60;99.90
18998;DHT22;9632;51.018;4.284;2023-03-21T10:43:46;14.60;99.90
18998;DHT22;9632;51.018;4.284;2023-03-21T10:46:27;14.70;99.90
18998;DHT22;9632;51.018;4.284;2023-03-21T10:48:53;14.70;99.90
18998;DHT22;9632;51.018;4.284;2023-03-21T10:51:21;14.80;99.90
18998;DHT22;9632;51.018;4.284;2023-03-21T10:53:54;14.90;99.90
18998;DHT22;9632;51.018;4.284;2023-03-21T10:56:34;14.90;99.90
18998;DHT22;9632;51.018;4.284;2023-03-21T10:59:01;15.00;99.90
18998;DHT22;9632;51.018;4.284;2023-03-21T11:01:36;15.00;99.90
18998;DHT22;9632;51.018;4.284;2023-03-21T11:04:09;14.80;99.90
18998;DHT22;9632;51.018;4.284;2023-03-21T11:06:38;14.80;99.90
18998;DHT22;9632;51.018;4.284;2023-03-21T11:09:13;14.90;99.90
18998;DHT22;9632;51.018;4.284;2023-03-21T11:11:48;14.90;99.90
18998;DHT22;9632;51.018;4.284;2023-03-21T11:14:37;14.90;99.90
18998;DHT22;9632;51.018;4.284;2023-03-21T11:17:23;15.10;99.90
18998;DHT22;9632;51.018;4.284;2023-03-21T11:19:58;15.20;99.90
18998;DHT22;9632;51.018;4.284;2023-03-21T11:22:28;15.30;99.90
18998;DHT22;9632;51.018;4.284;2023-03-21T11:25:03;15.40;99.90
18998;DHT22;9632;51.018;4.284;2023-03-21T11:27:31;15.40;99.90
18998;DHT22;9632;51.018;4.284;2023-03-21T11:29:58;15.50;99.90
18998;DHT22;9632;51.018;4.284;2023-03-21T11:32:36;15.60;99.90
18998;DHT22;9632;51.018;4.284;2023-03-21T11:35:06;15.50;99.90
18998;DHT22;9632;51.018;4.284;2023-03-21T11:37:40;15.50;99.90
18998;DHT22;9632;51.018;4.284;2023-03-21T11:42:52;15.90;99.90
18998;DHT22;9632;51.018;4.284;2023-03-21T11:47:47;16.20;99.90
18998;DHT22;9632;51.018;4.284;2023-03-21T11:55:55;16.40;99.90
18998;DHT22;9632;51.018;4.284;2023-03-21T11:58:51;16.50;99.90
18998;DHT22;9632;51.018;4.284;2023-03-21T12:01:35;16.30;99.90
18998;DHT22;9632;51.018;4.284;2023-03-21T12:06:41;16.30;99.90
18998;DHT22;9632;51.018;4.284;2023-03-21T12:11:54;16.40;99.90
18998;DHT22;9632;51.018;4.284;2023-03-21T12:14:40;16.40;99.90
18998;DHT22;9632;51.018;4.284;2023-03-21T12:17:29;16.40;99.90
18998;DHT22;9632;51.018;4.284;2023-03-21T12:23:09;16.60;99.90
18998;DHT22;9632;51.018;4.284;2023-03-21T12:25:44;16.50;99.90
18998;DHT22;9632;51.018;4.284;2023-03-21T12:37:15;16.60;99.90
18998;DHT22;9632;51.018;4.284;2023-03-21T12:39:45;16.70;99.90
18998;DHT22;9632;51.018;4.284;2023-03-21T12:44:55;16.90;99.90
18998;DHT22;9632;51.018;4.284;2023-03-21T12:47:26;17.00;99.90
18998;DHT22;9632;51.018;4.284;2023-03-21T12:50:04;16.80;99.90
18998;DHT22;9632;51.018;4.284;2023-03-21T12:52:38;16.80;99.90
18998;DHT22;9632;51.018;4.284;2023-03-21T12:55:25;16.90;99.90
18998;DHT22;9632;51.018;4.284;2023-03-21T12:58:16;16.90;99.90
18998;DHT22;9632;51.018;4.284;2023-03-21T13:01:02;17.00;99.90
18998;DHT22;9632;51.018;4.284;2023-03-21T13:03:47;17.00;99.90
18998;DHT22;9632;51.018;4.284;2023-03-21T13:06:17;17.00;99.90
18998;DHT22;9632;51.018;4.284;2023-03-21T13:09:01;16.90;99.90
18998;DHT22;9632;51.018;4.284;2023-03-21T13:11:30;16.80;99.90
18998;DHT22;9632;51.018;4.284;2023-03-21T13:19:55;17.00;99.90
18998;DHT22;9632;51.018;4.284;2023-03-21T13:22:28;17.00;99.90
18998;DHT22;9632;51.018;4.284;2023-03-21T13:25:20;17.00;99.90
18998;DHT22;9632;51.018;4.284;2023-03-21T13:28:04;17.00;99.90
18998;DHT22;9632;51.018;4.284;2023-03-21T13:30:31;17.00;99.90
18998;DHT22;9632;51.018;4.284;2023-03-21T13:33:10;17.10;99.90
18998;DHT22;9632;51.018;4.284;2023-03-21T13:35:42;17.10;99.90
18998;DHT22;9632;51.018;4.284;2023-03-21T13:38:41;17.00;99.90
18998;DHT22;9632;51.018;4.284;2023-03-21T13:41:21;17.00;99.90
18998;DHT22;9632;51.018;4.284;2023-03-21T13:54:03;16.80;99.90
18998;DHT22;9632;51.018;4.284;2023-03-21T13:59:10;16.80;99.90
18998;DHT22;9632;51.018;4.284;2023-03-21T14:01:40;16.70;99.90
18998;DHT22;9632;51.018;4.284;2023-03-21T14:04:18;16.60;99.90
18998;DHT22;9632;51.018;4.284;2023-03-21T14:07:27;16.60;99.90
18998;DHT22;9632;51.018;4.284;2023-03-21T14:10:00;16.60;99.90
18998;DHT22;9632;51.018;4.284;2023-03-21T14:12:30;16.50;99.90
18998;DHT22;9632;51.018;4.284;2023-03-21T14:15:03;16.40;99.90
18998;DHT22;9632;51.018;4.284;2023-03-21T14:17:31;16.20;99.90
18998;DHT22;9632;51.018;4.284;2023-03-21T14:20:12;16.10;99.90
18998;DHT22;9632;51.018;4.284;2023-03-21T14:22:39;16.00;99.90
18998;DHT22;9632;51.018;4.284;2023-03-21T14:25:11;15.90;99.90
18998;DHT22;9632;51.018;4.284;2023-03-21T14:27:41;15.70;99.90
18998;DHT22;9632;51.018;4.284;2023-03-21T14:30:11;15.70;99.90
18998;DHT22;9632;51.018;4.284;2023-03-21T14:32:44;15.60;99.90
18998;DHT22;9632;51.018;4.284;2023-03-21T14:35:12;15.60;99.90
18998;DHT22;9632;51.018;4.284;2023-03-21T14:37:41;15.70;99.90
18998;DHT22;9632;51.018;4.284;2023-03-21T14:40:23;15.70;99.90
18998;DHT22;9632;51.018;4.284;2023-03-21T14:42:50;15.70;99.90
18998;DHT22;9632;51.018;4.284;2023-03-21T14:45:21;15.70;99.90
18998;DHT22;9632;51.018;4.284;2023-03-21T14:48:04;15.60;99.90
18998;DHT22;9632;51.018;4.284;2023-03-21T14:50:51;15.60;99.90
18998;DHT22;9632;51.018;4.284;2023-03-21T14:53:40;15.50;99.90
18998;DHT22;9632;51.018;4.284;2023-03-21T14:56:21;15.40;99.90
18998;DHT22;9632;51.018;4.284;2023-03-21T14:58:47;15.30;99.90
18998;DHT22;9632;51.018;4.284;2023-03-21T15:01:26;15.40;99.90
18998;DHT22;9632;51.018;4.284;2023-03-21T15:03:53;15.40;99.90
18998;DHT22;9632;51.018;4.284;2023-03-21T15:09:02;15.40;99.90
18998;DHT22;9632;51.018;4.284;2023-03-21T15:11:37;15.40;99.90
18998;DHT22;9632;51.018;4.284;2023-03-21T15:14:05;15.40;99.90
18998;DHT22;9632;51.018;4.284;2023-03-21T15:16:32;15.30;99.90
18998;DHT22;9632;51.018;4.284;2023-03-21T15:18:58;15.30;99.90
18998;DHT22;9632;51.018;4.284;2023-03-21T15:21:29;15.30;99.90
18998;DHT22;9632;51.018;4.284;2023-03-21T15:24:05;15.20;99.90
18998;DHT22;9632;51.018;4.284;2023-03-21T15:26:38;15.30;99.90
18998;DHT22;9632;51.018;4.284;2023-03-21T15:29:05;15.30;99.90
18998;DHT22;9632;51.018;4.284;2023-03-21T15:31:35;15.50;99.90
18998;DHT22;9632;51.018;4.284;2023-03-21T15:34:04;15.40;99.90
18998;DHT22;9632;51.018;4.284;2023-03-21T15:36:34;15.50;99.90
18998;DHT22;9632;51.018;4.284;2023-03-21T15:39:05;15.40;99.90
18998;DHT22;9632;51.018;4.284;2023-03-21T15:41:33;15.50;99.90
18998;DHT22;9632;51.018;4.284;2023-03-21T15:49:19;15.40;99.90
18998;DHT22;9632;51.018;4.284;2023-03-21T15:52:22;15.40;99.90
18998;DHT22;9632;51.018;4.284;2023-03-21T15:54:50;15.30;99.90
18998;DHT22;9632;51.018;4.284;2023-03-21T15:57:25;15.30;99.90
18998;DHT22;9632;51.018;4.284;2023-03-21T16:00:47;15.30;99.90
18998;DHT22;9632;51.018;4.284;2023-03-21T16:03:12;15.40;99.90
18998;DHT22;9632;51.018;4.284;2023-03-21T16:05:41;15.40;99.90
18998;DHT22;9632;51.018;4.284;2023-03-21T16:08:22;15.40;99.90
18998;DHT22;9632;51.018;4.284;2023-03-21T16:10:51;15.40;99.90
18998;DHT22;9632;51.018;4.284;2023-03-21T16:13:17;15.40;99.90
18998;DHT22;9632;51.018;4.284;2023-03-21T16:15:43;15.40;99.90
18998;DHT22;9632;51.018;4.284;2023-03-21T16:18:13;15.40;99.90
18998;DHT22;9632;51.018;4.284;2023-03-21T16:20:41;15.40;99.90
18998;DHT22;9632;51.018;4.284;2023-03-21T16:23:12;15.50;99.90
18998;DHT22;9632;51.018;4.284;2023-03-21T16:25:38;15.40;99.90
18998;DHT22;9632;51.018;4.284;2023-03-21T16:28:11;15.50;99.90
18998;DHT22;9632;51.018;4.284;2023-03-21T16:30:37;15.50;99.90
18998;DHT22;9632;51.018;4.284;2023-03-21T16:33:03;15.60;99.90
18998;DHT22;9632;51.018;4.284;2023-03-21T16:35:29;15.50;99.90
18998;DHT22;9632;51.018;4.284;2023-03-21T16:37:54;15.60;99.90
18998;DHT22;9632;51.018;4.284;2023-03-21T16:40:27;15.60;99.90
18998;DHT22;9632;51.018;4.284;2023-03-21T16:42:54;15.60;99.90
18998;DHT22;9632;51.018;4.284;2023-03-21T16:45:20;15.50;99.90
18998;DHT22;9632;51.018;4.284;2023-03-21T16:47:47;15.50;99.90
18998;DHT22;9632;51.018;4.284;2023-03-21T16:52:44;15.40;99.90
18998;DHT22;9632;51.018;4.284;2023-03-21T16:55:10;15.50;99.90
18998;DHT22;9632;51.018;4.284;2023-03-21T16:57:36;15.50;99.90
18998;DHT22;9632;51.018;4.284;2023-03-21T17:00:03;15.50;99.90
18998;DHT22;9632;51.018;4.284;2023-03-21T17:02:31;15.50;99.90
18998;DHT22;9632;51.018;4.284;2023-03-21T17:04:57;15.40;99.90
18998;DHT22;9632;51.018;4.284;2023-03-21T17:07:22;15.40;99.90
18998;DHT22;9632;51.018;4.284;2023-03-21T17:09:48;15.40;99.90
18998;DHT22;9632;51.018;4.284;2023-03-21T17:12:15;15.30;99.90
18998;DHT22;9632;51.018;4.284;2023-03-21T17:14:42;15.30;99.90
18998;DHT22;9632;51.018;4.284;2023-03-21T17:17:12;15.40;99.90
18998;DHT22;9632;51.018;4.284;2023-03-21T17:19:39;15.40;99.90
18998;DHT22;9632;51.018;4.284;2023-03-21T17:22:05;15.50;99.90
18998;DHT22;9632;51.018;4.284;2023-03-21T17:24:31;15.50;99.90
18998;DHT22;9632;51.018;4.284;2023-03-21T17:26:58;15.50;99.90
18998;DHT22;9632;51.018;4.284;2023-03-21T17:29:25;15.50;99.90
18998;DHT22;9632;51.018;4.284;2023-03-21T17:31:50;15.40;99.90
18998;DHT22;9632;51.018;4.284;2023-03-21T17:34:16;15.40;99.90
18998;DHT22;9632;51.018;4.284;2023-03-21T17:36:43;15.40;99.90
18998;DHT22;9632;51.018;4.284;2023-03-21T17:39:22;15.40;99.90
18998;DHT22;9632;51.018;4.284;2023-03-21T17:41:49;15.40;99.90
18998;DHT22;9632;51.018;4.284;2023-03-21T17:44:16;15.30;99.90